createdAt,value
2017-08-20T00:01:45.019Z,78.84
2017-08-20T00:04:14.143Z,78.73
2017-08-20T00:06:43.146Z,78.69
2017-08-20T00:09:11.496Z,78.34
2017-08-20T00:11:39.890Z,77.93
2017-08-20T00:14:08.582Z,77.64
2017-08-20T00:16:36.931Z,78.44
2017-08-20T00:19:06.067Z,78.41
2017-08-20T00:21:34.738Z,78.96
2017-08-20T00:24:03.142Z,78.02
2017-08-20T00:26:31.514Z,77.40
2017-08-20T00:29:00.350Z,77.15
2017-08-20T00:31:28.702Z,77.17
2017-08-20T00:33:57.054Z,77.77
2017-08-20T00:36:25.439Z,77.75
2017-08-20T00:38:53.799Z,76.83
2017-08-20T00:41:22.146Z,76.24
2017-08-20T00:43:50.537Z,75.53
2017-08-20T00:46:19.018Z,75.76
2017-08-20T00:48:47.378Z,76.30
2017-08-20T00:51:16.202Z,76.61
2017-08-20T00:53:45.282Z,77.99
2017-08-20T00:56:13.627Z,77.17
2017-08-20T00:58:42.006Z,76.68
2017-08-20T01:01:10.387Z,76.83
2017-08-20T01:03:38.734Z,77.57
2017-08-20T01:06:07.112Z,77.90
2017-08-20T01:08:35.464Z,78.19
2017-08-20T01:11:04.581Z,77.13
2017-08-20T01:13:33.549Z,76.57
2017-08-20T01:16:01.896Z,76.78
2017-08-20T01:18:30.228Z,77.48
2017-08-20T01:20:58.608Z,77.96
2017-08-20T01:23:26.962Z,77.24
2017-08-20T01:25:56.086Z,76.59
2017-08-20T01:28:24.628Z,76.88
2017-08-20T01:30:52.961Z,77.54
2017-08-20T01:33:21.333Z,77.55
2017-08-20T01:35:49.782Z,77.89
2017-08-20T01:38:18.911Z,78.10
2017-08-20T01:40:47.278Z,78.38
2017-08-20T01:43:15.634Z,79.71
2017-08-20T01:45:44.753Z,78.93
2017-08-20T01:48:13.117Z,79.81
2017-08-20T01:50:41.486Z,79.72
2017-08-20T01:53:09.830Z,79.99
2017-08-20T01:55:38.519Z,80.05
2017-08-20T01:58:07.043Z,80.00
2017-08-20T02:00:46.193Z,80.15
2017-08-20T02:03:14.570Z,79.44
2017-08-20T02:05:42.929Z,79.66
2017-08-20T02:08:11.307Z,80.86
2017-08-20T02:10:40.481Z,79.24
2017-08-20T02:13:08.850Z,79.63
2017-08-20T02:15:37.200Z,79.48
2017-08-20T02:18:05.981Z,79.00
2017-08-20T02:20:34.330Z,78.02
2017-08-20T02:23:03.573Z,79.03
2017-08-20T02:25:32.053Z,79.14
2017-08-20T02:28:00.414Z,79.33
2017-08-20T02:30:28.756Z,78.82
2017-08-20T02:32:57.125Z,78.52
2017-08-20T02:35:25.490Z,79.20
2017-08-20T02:37:53.867Z,79.00
2017-08-20T02:40:23.109Z,78.12
2017-08-20T02:42:52.235Z,78.38
2017-08-20T02:45:20.597Z,78.39
2017-08-20T02:47:49.052Z,78.68
2017-08-20T02:50:18.192Z,78.09
2017-08-20T02:52:46.578Z,78.09
2017-08-20T02:55:14.967Z,78.27
2017-08-20T02:57:43.504Z,78.45
2017-08-20T03:00:11.935Z,78.54
2017-08-20T03:02:40.677Z,77.94
2017-08-20T03:05:09.018Z,78.65
2017-08-20T03:07:37.374Z,78.36
2017-08-20T03:10:06.658Z,78.69
2017-08-20T03:12:35.030Z,77.46
2017-08-20T03:15:03.398Z,77.19
2017-08-20T03:17:31.796Z,76.69
2017-08-20T03:20:00.939Z,77.33
2017-08-20T03:22:29.286Z,79.29
2017-08-20T03:24:57.866Z,79.68
2017-08-20T03:27:26.206Z,80.13
2017-08-20T03:29:55.407Z,80.06
2017-08-20T03:32:23.822Z,78.72
2017-08-20T03:34:52.176Z,78.15
2017-08-20T03:37:20.514Z,78.92
2017-08-20T03:39:48.971Z,79.16
2017-08-20T03:42:17.365Z,78.44
2017-08-20T03:44:45.751Z,78.50
2017-08-20T03:47:14.198Z,77.74
2017-08-20T03:49:42.546Z,78.26
2017-08-20T03:52:11.677Z,78.15
2017-08-20T03:54:40.044Z,77.97
2017-08-20T03:57:08.397Z,78.46
2017-08-20T03:59:36.740Z,79.24
2017-08-20T04:02:05.928Z,78.97
2017-08-20T04:04:34.274Z,78.83
2017-08-20T04:07:02.622Z,77.85
2017-08-20T04:09:31.062Z,78.04
2017-08-20T04:11:59.411Z,78.71
2017-08-20T04:14:27.768Z,79.27
2017-08-20T04:16:56.168Z,78.24
2017-08-20T04:19:24.510Z,79.20
2017-08-20T04:21:52.829Z,78.09
2017-08-20T04:24:21.204Z,77.61
2017-08-20T04:26:49.561Z,77.53
2017-08-20T04:29:17.942Z,77.60
2017-08-20T04:31:46.393Z,78.42
2017-08-20T04:34:14.782Z,78.94
2017-08-20T04:36:43.141Z,78.12
2017-08-20T04:39:11.524Z,78.28
2017-08-20T04:41:39.903Z,77.57
2017-08-20T04:44:08.275Z,77.86
2017-08-20T04:46:36.633Z,78.42
2017-08-20T04:49:04.980Z,77.83
2017-08-20T04:51:33.334Z,77.41
2017-08-20T04:54:02.098Z,76.64
2017-08-20T04:56:30.477Z,78.17
2017-08-20T04:58:58.836Z,78.74
2017-08-20T05:01:27.246Z,78.98
2017-08-20T05:03:55.620Z,78.30
2017-08-20T05:06:23.969Z,78.86
2017-08-20T05:08:52.364Z,79.26
2017-08-20T05:11:20.728Z,78.59
2017-08-20T05:13:49.074Z,77.70
2017-08-20T05:16:18.354Z,76.28
2017-08-20T05:18:46.715Z,77.20
2017-08-20T05:21:15.118Z,77.41
2017-08-20T05:23:44.270Z,78.55
2017-08-20T05:26:12.625Z,78.10
2017-08-20T05:28:40.984Z,77.25
2017-08-20T05:31:10.135Z,77.57
2017-08-20T05:33:38.497Z,78.39
2017-08-20T05:36:07.524Z,78.54
2017-08-20T05:38:35.975Z,78.73
2017-08-20T05:41:04.329Z,78.86
2017-08-20T05:43:32.669Z,77.79
2017-08-20T05:46:01.112Z,77.29
2017-08-20T05:48:29.463Z,76.96
2017-08-20T05:50:58.633Z,77.20
2017-08-20T05:53:27.090Z,76.29
2017-08-20T05:55:55.789Z,76.56
2017-08-20T05:58:24.150Z,75.24
2017-08-20T06:00:52.748Z,76.11
2017-08-20T06:03:21.118Z,75.23
2017-08-20T06:05:49.487Z,74.61
2017-08-20T06:08:17.897Z,73.06
2017-08-20T06:10:46.278Z,71.64
2017-08-20T06:13:14.655Z,70.99
2017-08-20T06:15:43.039Z,70.33
2017-08-20T06:18:11.406Z,69.76
2017-08-20T06:20:39.745Z,70.25
2017-08-20T06:23:08.541Z,69.93
2017-08-20T06:25:36.891Z,70.53
2017-08-20T06:28:06.013Z,69.82
2017-08-20T06:30:34.389Z,71.52
2017-08-20T06:33:02.720Z,71.08
2017-08-20T06:35:31.062Z,70.12
2017-08-20T06:37:59.435Z,69.31
2017-08-20T06:40:27.858Z,69.70
2017-08-20T06:42:56.228Z,69.53
2017-08-20T06:45:24.741Z,68.09
2017-08-20T06:47:53.078Z,67.94
2017-08-20T06:50:21.405Z,68.37
2017-08-20T06:52:49.775Z,68.22
2017-08-20T06:55:18.114Z,68.37
2017-08-20T06:57:46.446Z,67.59
2017-08-20T07:00:14.820Z,68.10
2017-08-20T07:02:43.916Z,69.54
2017-08-20T07:05:12.263Z,68.85
2017-08-20T07:07:40.694Z,68.57
2017-08-20T07:10:09.049Z,67.42
2017-08-20T07:12:38.078Z,66.42
2017-08-20T07:15:06.425Z,66.02
2017-08-20T07:17:34.776Z,65.49
2017-08-20T07:20:03.130Z,65.13
2017-08-20T07:22:31.524Z,65.04
2017-08-20T07:24:59.875Z,66.41
2017-08-20T07:27:28.242Z,65.26
2017-08-20T07:29:56.897Z,65.41
2017-08-20T07:32:25.993Z,63.83
2017-08-20T07:34:54.346Z,63.94
2017-08-20T07:37:22.742Z,62.76
2017-08-20T07:39:51.095Z,62.22
2017-08-20T07:42:19.447Z,61.07
2017-08-20T07:44:47.830Z,61.14
2017-08-20T07:47:16.165Z,60.45
2017-08-20T07:49:45.276Z,59.34
2017-08-20T07:52:14.493Z,58.05
2017-08-20T07:54:42.843Z,59.75
2017-08-20T07:57:11.206Z,59.78
2017-08-20T07:59:39.565Z,59.04
2017-08-20T08:02:08.146Z,57.56
2017-08-20T08:04:36.496Z,56.54
2017-08-20T08:07:04.886Z,56.08
2017-08-20T08:09:33.234Z,56.58
2017-08-20T08:12:01.588Z,55.34
2017-08-20T08:14:30.152Z,53.82
2017-08-20T08:16:58.503Z,53.62
2017-08-20T08:19:26.881Z,52.89
2017-08-20T08:21:55.266Z,52.27
2017-08-20T08:24:23.645Z,50.62
2017-08-20T08:26:52.017Z,50.61
2017-08-20T08:29:20.405Z,49.82
2017-08-20T08:31:48.772Z,49.82
2017-08-20T08:34:17.121Z,49.29
2017-08-20T08:36:47.499Z,49.08
2017-08-20T08:39:15.854Z,48.78
2017-08-20T08:41:45.083Z,49.28
2017-08-20T08:44:13.483Z,48.75
2017-08-20T08:46:41.847Z,48.74
2017-08-20T08:49:10.206Z,47.22
2017-08-20T08:51:38.574Z,46.84
2017-08-20T08:54:06.911Z,46.63
2017-08-20T08:56:35.262Z,47.09
2017-08-20T08:59:03.704Z,45.59
2017-08-20T09:01:32.048Z,45.27
2017-08-20T09:04:00.382Z,44.51
2017-08-20T09:06:28.763Z,44.91
2017-08-20T09:08:57.117Z,45.38
2017-08-20T09:11:25.479Z,45.58
2017-08-20T09:13:53.856Z,43.84
2017-08-20T09:16:22.964Z,44.59
2017-08-20T09:18:51.303Z,42.14
2017-08-20T09:21:19.785Z,43.13
2017-08-20T09:23:48.141Z,44.01
2017-08-20T09:26:16.528Z,43.36
2017-08-20T09:28:44.882Z,42.69
2017-08-20T09:31:13.219Z,42.63
2017-08-20T09:33:41.577Z,41.41
2017-08-20T09:36:09.957Z,41.48
2017-08-20T09:38:38.300Z,41.51
2017-08-20T09:41:06.641Z,42.23
2017-08-20T09:43:35.325Z,41.45
2017-08-20T09:46:03.711Z,41.68
2017-08-20T09:48:32.065Z,41.17
2017-08-20T09:51:00.463Z,41.45
2017-08-20T09:53:29.621Z,40.52
2017-08-20T09:55:57.964Z,39.11
2017-08-20T09:58:26.831Z,39.59
2017-08-20T10:00:55.201Z,39.46
2017-08-20T10:03:24.309Z,38.13
2017-08-20T10:05:52.785Z,40.33
2017-08-20T10:08:21.125Z,39.77
2017-08-20T10:10:49.455Z,39.47
2017-08-20T10:13:17.824Z,38.98
2017-08-20T10:15:46.166Z,39.62
2017-08-20T10:18:15.191Z,38.47
2017-08-20T10:20:44.343Z,39.23
2017-08-20T10:23:12.705Z,38.71
2017-08-20T10:25:41.060Z,39.75
2017-08-20T10:28:09.597Z,39.97
2017-08-20T10:30:37.942Z,39.97
2017-08-20T10:33:06.288Z,39.14
2017-08-20T10:35:34.663Z,40.74
2017-08-20T10:38:03.001Z,38.57
2017-08-20T10:40:31.351Z,39.41
2017-08-20T10:42:59.713Z,39.77
2017-08-20T10:45:28.531Z,39.21
2017-08-20T10:47:56.953Z,41.80
2017-08-20T10:50:26.016Z,43.27
2017-08-20T10:52:54.356Z,42.86
2017-08-20T10:55:22.701Z,42.83
2017-08-20T10:57:51.084Z,41.53
2017-08-20T11:00:19.464Z,39.87
2017-08-20T11:02:47.807Z,39.57
2017-08-20T11:05:16.296Z,40.20
2017-08-20T11:07:44.650Z,40.19
2017-08-20T11:10:13.006Z,41.61
2017-08-20T11:12:42.573Z,41.04
2017-08-20T11:15:10.900Z,40.08
2017-08-20T11:17:40.130Z,39.80
2017-08-20T11:20:08.521Z,40.78
2017-08-20T11:22:36.853Z,39.97
2017-08-20T11:25:05.239Z,40.31
2017-08-20T11:27:33.605Z,40.65
2017-08-20T11:30:01.968Z,39.95
2017-08-20T11:32:31.081Z,41.40
2017-08-20T11:34:59.560Z,40.96
2017-08-20T11:37:27.947Z,40.77
2017-08-20T11:39:56.310Z,41.84
2017-08-20T11:42:24.694Z,42.61
2017-08-20T11:44:53.035Z,43.98
2017-08-20T11:47:21.419Z,42.78
2017-08-20T11:49:49.829Z,42.64
2017-08-20T11:52:18.145Z,42.83
2017-08-20T11:54:46.492Z,44.29
2017-08-20T11:57:15.213Z,45.22
2017-08-20T11:59:43.565Z,46.08
2017-08-20T12:02:11.931Z,46.78
2017-08-20T12:04:40.295Z,48.11
2017-08-20T12:07:08.643Z,48.58
2017-08-20T12:09:37.012Z,49.56
2017-08-20T12:12:05.368Z,50.46
2017-08-20T12:14:33.748Z,50.95
2017-08-20T12:17:02.087Z,52.98
2017-08-20T12:19:30.507Z,54.06
2017-08-20T12:21:58.869Z,55.93
2017-08-20T12:24:27.244Z,57.47
2017-08-20T12:26:55.665Z,57.26
2017-08-20T12:29:24.020Z,58.28
2017-08-20T12:31:52.454Z,60.12
2017-08-20T12:34:20.836Z,60.01
2017-08-20T12:36:49.190Z,58.91
2017-08-20T12:39:17.580Z,61.05
2017-08-20T12:41:46.455Z,60.58
2017-08-20T12:44:15.642Z,60.04
2017-08-20T12:46:44.032Z,59.38
2017-08-20T12:49:12.410Z,59.57
2017-08-20T12:51:40.758Z,60.55
2017-08-20T12:54:09.138Z,62.26
2017-08-20T12:56:37.522Z,60.90
2017-08-20T12:59:05.901Z,58.97
2017-08-20T13:01:34.244Z,58.28
2017-08-20T13:04:02.720Z,58.12
2017-08-20T13:06:31.076Z,57.40
2017-08-20T13:08:59.446Z,55.49
2017-08-20T13:11:28.145Z,55.61
2017-08-20T13:13:56.487Z,55.71
2017-08-20T13:16:24.845Z,54.23
2017-08-20T13:18:53.257Z,52.15
2017-08-20T13:21:21.591Z,52.89
2017-08-20T13:23:49.968Z,52.64
2017-08-20T13:26:19.108Z,51.37
2017-08-20T13:28:47.471Z,51.44
2017-08-20T13:31:15.833Z,52.38
2017-08-20T13:33:44.206Z,53.34
2017-08-20T13:36:13.342Z,53.92
2017-08-20T13:38:41.680Z,54.41
2017-08-20T13:41:10.047Z,54.64
2017-08-20T13:43:38.392Z,55.56
2017-08-20T13:46:06.743Z,57.26
2017-08-20T13:48:35.719Z,58.56
2017-08-20T13:51:04.827Z,58.12
2017-08-20T13:53:33.152Z,58.08
2017-08-20T13:56:01.537Z,59.02
2017-08-20T13:58:29.888Z,60.58
2017-08-20T14:00:58.225Z,60.56
2017-08-20T14:03:26.730Z,60.98
2017-08-20T14:05:55.082Z,62.00
2017-08-20T14:08:23.452Z,61.39
2017-08-20T14:10:51.871Z,60.48
2017-08-20T14:13:20.220Z,59.64
2017-08-20T14:15:49.582Z,61.41
2017-08-20T14:18:18.238Z,62.14
2017-08-20T14:20:46.594Z,62.18
2017-08-20T14:23:14.967Z,61.75
2017-08-20T14:25:43.822Z,62.77
2017-08-20T14:28:12.184Z,62.60
2017-08-20T14:30:40.534Z,64.62
2017-08-20T14:33:10.070Z,66.79
2017-08-20T14:35:38.488Z,66.74
2017-08-20T14:38:07.649Z,66.70
2017-08-20T14:40:36.060Z,67.35
2017-08-20T14:43:04.432Z,67.11
2017-08-20T14:45:32.806Z,68.08
2017-08-20T14:48:01.269Z,68.38
2017-08-20T14:50:29.613Z,68.26
2017-08-20T14:52:57.986Z,68.40
2017-08-20T14:55:26.409Z,66.81
2017-08-20T14:57:54.761Z,63.94
2017-08-20T15:00:23.120Z,62.71
2017-08-20T15:02:51.499Z,62.31
2017-08-20T15:05:19.875Z,61.04
2017-08-20T15:07:48.206Z,59.53
2017-08-20T15:10:16.634Z,58.57
2017-08-20T15:12:45.783Z,57.52
2017-08-20T15:15:14.152Z,57.37
2017-08-20T15:17:42.582Z,56.40
2017-08-20T15:20:10.962Z,55.25
2017-08-20T15:22:40.119Z,54.59
2017-08-20T15:25:08.504Z,53.24
2017-08-20T15:27:36.865Z,54.33
2017-08-20T15:30:05.220Z,54.69
2017-08-20T15:32:33.615Z,54.13
2017-08-20T15:35:02.048Z,55.08
2017-08-20T15:37:30.410Z,55.35
2017-08-20T15:39:58.878Z,56.14
2017-08-20T15:42:27.258Z,56.38
2017-08-20T15:44:55.623Z,55.93
2017-08-20T15:47:23.991Z,57.03
2017-08-20T15:49:52.346Z,57.37
2017-08-20T15:52:20.705Z,57.52
2017-08-20T15:54:49.127Z,57.52
2017-08-20T15:57:17.504Z,57.57
2017-08-20T15:59:45.853Z,58.86
2017-08-20T16:02:14.326Z,59.99
2017-08-20T16:04:42.675Z,59.42
2017-08-20T16:07:11.324Z,60.88
2017-08-20T16:09:39.732Z,60.66
2017-08-20T16:12:08.123Z,60.67
2017-08-20T16:14:36.519Z,60.01
2017-08-20T16:17:05.047Z,59.58
2017-08-20T16:19:33.432Z,59.24
2017-08-20T16:22:01.778Z,59.94
2017-08-20T16:24:30.367Z,61.23
2017-08-20T16:26:58.773Z,61.31
2017-08-20T16:29:27.386Z,62.09
2017-08-20T16:31:55.763Z,62.49
2017-08-20T16:34:24.144Z,63.27
2017-08-20T16:36:52.496Z,63.79
2017-08-20T16:39:20.916Z,63.68
2017-08-20T16:41:49.263Z,63.85
2017-08-20T16:44:17.600Z,64.44
2017-08-20T16:46:46.132Z,64.43
2017-08-20T16:49:14.507Z,63.39
2017-08-20T16:51:42.877Z,64.35
2017-08-20T16:54:11.255Z,63.64
2017-08-20T16:56:39.626Z,64.40
2017-08-20T16:59:07.955Z,63.90
2017-08-20T17:03:20.061Z,66.27
2017-08-20T17:05:48.415Z,65.79
2017-08-20T17:08:16.786Z,66.64
2017-08-20T17:10:45.173Z,66.00
2017-08-20T17:13:13.549Z,65.82
2017-08-20T17:15:41.883Z,65.20
2017-08-20T17:18:10.330Z,64.72
2017-08-20T17:20:38.680Z,64.87
2017-08-20T17:23:07.066Z,64.48
2017-08-20T17:25:35.637Z,64.55
2017-08-20T17:28:04.008Z,65.63
2017-08-20T17:30:32.353Z,65.02
2017-08-20T17:33:00.732Z,64.44
2017-08-20T17:35:29.161Z,64.25
2017-08-20T17:37:57.588Z,64.13
2017-08-20T17:40:26.002Z,64.18
2017-08-20T17:42:54.378Z,64.00
2017-08-20T17:45:22.906Z,64.03
2017-08-20T17:47:51.325Z,63.37
2017-08-20T17:50:19.690Z,63.76
2017-08-20T17:52:48.083Z,63.50
2017-08-20T17:55:16.499Z,62.79
2017-08-20T17:57:44.868Z,62.78
2017-08-20T18:00:14.294Z,63.48
2017-08-20T18:02:43.546Z,63.66
2017-08-20T18:05:11.897Z,63.77
2017-08-20T18:07:40.267Z,64.07
2017-08-20T18:10:09.362Z,64.46
2017-08-20T18:12:37.744Z,64.47
2017-08-20T18:15:06.093Z,64.41
2017-08-20T18:17:34.478Z,65.48
2017-08-20T18:20:02.830Z,64.90
2017-08-20T18:22:31.204Z,64.59
2017-08-20T18:24:59.621Z,65.16
2017-08-20T18:27:27.968Z,65.45
2017-08-20T18:29:56.349Z,65.52
2017-08-20T18:32:25.916Z,66.77
2017-08-20T18:34:54.333Z,66.33
2017-08-20T18:37:22.683Z,66.33
2017-08-20T18:39:51.960Z,66.60
2017-08-20T18:42:20.326Z,66.73
2017-08-20T18:44:48.681Z,67.21
2017-08-20T18:47:17.057Z,67.52
2017-08-20T18:49:45.428Z,66.90
2017-08-20T18:52:14.081Z,66.70
2017-08-20T18:54:42.547Z,66.15
2017-08-20T18:57:10.929Z,67.11
2017-08-20T18:59:39.308Z,67.25
2017-08-20T19:02:08.766Z,67.30
2017-08-20T19:04:37.143Z,67.69
2017-08-20T19:07:06.288Z,67.77
2017-08-20T19:09:34.663Z,68.10
2017-08-20T19:12:03.065Z,68.31
2017-08-20T19:14:31.865Z,67.84
2017-08-20T19:17:00.320Z,68.23
2017-08-20T19:19:28.710Z,68.98
2017-08-20T19:21:57.094Z,69.30
2017-08-20T19:24:25.487Z,68.93
2017-08-20T19:26:53.850Z,69.04
2017-08-20T19:29:22.262Z,69.08
2017-08-20T19:31:50.661Z,69.79
2017-08-20T19:34:19.043Z,70.32
2017-08-20T19:36:47.435Z,69.68
2017-08-20T19:39:16.218Z,69.14
2017-08-20T19:41:44.670Z,69.91
2017-08-20T19:44:13.079Z,70.56
2017-08-20T19:46:41.486Z,70.77
2017-08-20T19:49:09.887Z,71.12
2017-08-20T19:51:39.753Z,70.98
2017-08-20T19:54:08.135Z,70.44
2017-08-20T19:56:36.481Z,70.39
2017-08-20T19:59:06.555Z,70.27
2017-08-20T20:01:35.020Z,70.60
2017-08-20T20:04:03.424Z,71.26
2017-08-20T20:06:31.792Z,71.54
2017-08-20T20:09:00.184Z,72.75
2017-08-20T20:11:28.591Z,72.22
2017-08-20T20:13:57.018Z,72.54
2017-08-20T20:16:26.224Z,72.29
2017-08-20T20:18:54.583Z,72.44
2017-08-20T20:21:22.950Z,71.79
2017-08-20T20:23:52.171Z,71.21
2017-08-20T20:26:20.574Z,71.19
2017-08-20T20:28:48.957Z,71.45
2017-08-20T20:31:17.328Z,71.31
2017-08-20T20:33:45.687Z,71.14
2017-08-20T20:36:14.083Z,71.06
2017-08-20T20:38:42.672Z,70.84
2017-08-20T20:41:11.031Z,70.40
2017-08-20T20:43:39.403Z,70.99
2017-08-20T20:46:08.463Z,71.28
2017-08-20T20:48:36.814Z,70.65
2017-08-20T20:51:05.192Z,70.92
2017-08-20T20:53:33.612Z,71.04
2017-08-20T20:56:02.741Z,70.96
2017-08-20T20:58:31.145Z,71.55
2017-08-20T21:00:59.552Z,72.04
2017-08-20T21:03:27.919Z,72.23
2017-08-20T21:05:56.280Z,72.96
2017-08-20T21:08:25.035Z,73.20
2017-08-20T21:10:53.478Z,73.11
2017-08-20T21:13:21.827Z,73.75
2017-08-20T21:15:50.205Z,74.33
2017-08-20T21:18:18.574Z,74.53
2017-08-20T21:20:46.930Z,74.84
2017-08-20T21:23:16.269Z,74.92
2017-08-20T21:25:44.677Z,74.03
2017-08-20T21:28:13.044Z,74.51
2017-08-20T21:30:41.505Z,74.49
2017-08-20T21:33:09.889Z,74.45
2017-08-20T21:35:38.234Z,74.88
2017-08-20T21:38:06.664Z,74.72
2017-08-20T21:40:35.064Z,75.07
2017-08-20T21:43:03.425Z,74.88
2017-08-20T21:45:32.038Z,74.95
2017-08-20T21:48:00.433Z,74.85
2017-08-20T21:50:28.807Z,75.35
2017-08-20T21:52:57.368Z,75.54
2017-08-20T21:55:26.541Z,76.04
2017-08-20T21:57:54.932Z,76.20
2017-08-20T22:00:23.313Z,75.85
2017-08-20T22:02:51.695Z,76.00
2017-08-20T22:05:20.072Z,76.44
2017-08-20T22:07:48.459Z,76.76
2017-08-20T22:10:16.838Z,77.04
2017-08-20T22:12:45.205Z,76.83
2017-08-20T22:15:13.903Z,77.40
2017-08-20T22:17:42.301Z,76.67
2017-08-20T22:20:10.865Z,76.84
2017-08-20T22:22:39.229Z,76.67
2017-08-20T22:25:08.162Z,76.40
2017-08-20T22:27:36.590Z,76.57
2017-08-20T22:30:04.975Z,76.32
2017-08-20T22:32:33.353Z,76.69
2017-08-20T22:35:01.744Z,75.87
2017-08-20T22:37:30.225Z,76.63
2017-08-20T22:39:58.605Z,76.58
2017-08-20T22:42:26.973Z,76.04
2017-08-20T22:44:55.349Z,76.05
2017-08-20T22:47:23.835Z,76.80
2017-08-20T22:49:52.217Z,76.05
2017-08-20T22:52:20.599Z,75.95
2017-08-20T22:54:48.935Z,75.66
2017-08-20T22:57:17.280Z,75.05
2017-08-20T22:59:46.518Z,75.64
2017-08-20T23:02:15.912Z,75.78
2017-08-20T23:04:44.327Z,75.55
2017-08-20T23:07:12.712Z,75.60
2017-08-20T23:12:50.842Z,75.85
2017-08-20T23:15:19.216Z,75.22
2017-08-20T23:17:48.287Z,75.86
2017-08-20T23:20:17.282Z,75.95
2017-08-20T23:22:45.634Z,75.44
2017-08-20T23:25:14.012Z,75.25
2017-08-20T23:27:42.415Z,75.41
2017-08-20T23:30:10.784Z,75.49
2017-08-20T23:32:39.162Z,75.54
2017-08-20T23:35:07.525Z,75.87
2017-08-20T23:37:35.868Z,75.36
2017-08-20T23:40:04.237Z,75.80
2017-08-20T23:42:32.686Z,75.99
2017-08-20T23:45:01.044Z,76.05
2017-08-20T23:47:29.392Z,75.35
2017-08-20T23:49:57.758Z,75.97
2017-08-20T23:52:26.281Z,75.43
2017-08-20T23:54:55.408Z,75.43
2017-08-20T23:57:23.777Z,75.54
2017-08-20T23:59:52.150Z,75.05
